createdAt,value
2019-03-24T00:01:20.570Z,8.80
2019-03-24T00:03:51.001Z,8.80
2019-03-24T00:06:21.428Z,8.80
2019-03-24T00:08:52.019Z,8.80
2019-03-24T00:11:22.506Z,8.70
2019-03-24T00:13:52.928Z,8.70
2019-03-24T00:16:23.411Z,8.70
2019-03-24T00:18:53.900Z,8.70
2019-03-24T00:21:24.447Z,8.70
2019-03-24T00:23:54.880Z,8.70
2019-03-24T00:26:25.295Z,8.70
2019-03-24T00:28:55.718Z,8.70
2019-03-24T00:31:26.207Z,8.70
2019-03-24T00:33:56.799Z,8.70
2019-03-24T00:36:27.275Z,8.70
2019-03-24T00:38:57.773Z,8.70
2019-03-24T00:41:28.441Z,8.70
2019-03-24T00:43:59.067Z,8.70
2019-03-24T00:46:29.743Z,8.70
2019-03-24T00:49:01.071Z,8.70
2019-03-24T00:51:31.510Z,8.70
2019-03-24T00:54:01.948Z,8.70
2019-03-24T00:56:32.515Z,8.70
2019-03-24T00:59:03.070Z,8.60
2019-03-24T01:01:33.558Z,8.70
2019-03-24T01:04:04.076Z,8.60
2019-03-24T01:06:34.656Z,8.60
2019-03-24T01:09:07.482Z,8.60
2019-03-24T01:11:38.156Z,8.60
2019-03-24T01:14:08.657Z,8.60
2019-03-24T01:16:39.144Z,8.60
2019-03-24T01:19:09.920Z,8.60
2019-03-24T01:21:40.550Z,8.50
2019-03-24T01:24:11.148Z,8.60
2019-03-24T01:26:41.944Z,8.50
2019-03-24T01:29:12.452Z,8.50
2019-03-24T01:31:43.013Z,8.50
2019-03-24T01:34:13.510Z,8.50
2019-03-24T01:36:44.071Z,8.50
2019-03-24T01:39:14.634Z,8.50
2019-03-24T01:41:45.248Z,8.40
2019-03-24T01:44:15.943Z,8.40
2019-03-24T01:46:46.832Z,8.40
2019-03-24T01:49:17.657Z,8.40
2019-03-24T01:51:48.255Z,8.40
2019-03-24T01:54:18.897Z,8.30
2019-03-24T01:56:49.572Z,8.30
2019-03-24T01:59:20.172Z,8.30
2019-03-24T02:01:50.592Z,8.30
2019-03-24T02:04:21.007Z,8.30
2019-03-24T02:06:51.526Z,8.20
2019-03-24T02:09:21.994Z,8.20
2019-03-24T02:11:52.575Z,8.20
2019-03-24T02:14:23.143Z,8.20
2019-03-24T02:16:53.568Z,8.20
2019-03-24T02:19:24.048Z,8.20
2019-03-24T02:21:54.611Z,8.20
2019-03-24T02:24:25.106Z,8.20
2019-03-24T02:26:55.617Z,8.10
2019-03-24T02:29:26.083Z,8.10
2019-03-24T02:31:56.665Z,8.10
2019-03-24T02:34:27.222Z,8.10
2019-03-24T02:36:57.787Z,8.10
2019-03-24T02:39:28.264Z,8.10
2019-03-24T02:41:58.683Z,8.10
2019-03-24T02:44:29.084Z,8.00
2019-03-24T02:46:59.523Z,8.00
2019-03-24T02:49:29.915Z,8.00
2019-03-24T02:52:00.488Z,8.00
2019-03-24T02:54:30.890Z,8.00
2019-03-24T02:57:01.466Z,8.00
2019-03-24T02:59:31.945Z,8.00
2019-03-24T03:02:02.517Z,8.00
2019-03-24T03:04:33.009Z,8.00
2019-03-24T03:07:03.666Z,8.00
2019-03-24T03:09:34.089Z,7.90
2019-03-24T03:12:04.667Z,8.00
2019-03-24T03:14:35.052Z,7.90
2019-03-24T03:17:05.589Z,7.90
2019-03-24T03:19:36.082Z,7.90
2019-03-24T03:22:06.640Z,7.90
2019-03-24T03:24:37.049Z,7.90
2019-03-24T03:27:07.543Z,7.90
2019-03-24T03:29:37.954Z,7.90
2019-03-24T03:32:08.519Z,7.80
2019-03-24T03:34:38.984Z,7.80
2019-03-24T03:37:09.488Z,7.80
2019-03-24T03:39:40.208Z,7.80
2019-03-24T03:42:10.772Z,7.80
2019-03-24T03:44:41.252Z,7.80
2019-03-24T03:47:11.823Z,7.80
2019-03-24T03:49:42.226Z,7.70
2019-03-24T03:52:12.717Z,7.70
2019-03-24T03:54:43.190Z,7.70
2019-03-24T03:57:13.757Z,7.70
2019-03-24T03:59:44.155Z,7.70
2019-03-24T04:02:14.734Z,7.60
2019-03-24T04:04:45.160Z,7.60
2019-03-24T04:07:15.622Z,7.60
2019-03-24T04:09:46.102Z,7.50
2019-03-24T04:12:16.600Z,7.50
2019-03-24T04:14:47.019Z,7.50
2019-03-24T04:17:17.579Z,7.50
2019-03-24T04:19:48.056Z,7.50
2019-03-24T04:22:18.539Z,7.40
2019-03-24T04:24:48.948Z,7.40
2019-03-24T04:27:19.364Z,7.40
2019-03-24T04:29:49.764Z,7.40
2019-03-24T04:32:20.424Z,7.40
2019-03-24T04:34:50.976Z,7.40
2019-03-24T04:37:21.477Z,7.30
2019-03-24T04:39:51.883Z,7.30
2019-03-24T04:42:22.451Z,7.30
2019-03-24T04:44:52.934Z,7.30
2019-03-24T04:47:23.435Z,7.30
2019-03-24T04:49:53.965Z,7.20
2019-03-24T04:52:25.111Z,7.20
2019-03-24T04:54:55.515Z,7.20
2019-03-24T04:57:25.926Z,7.10
2019-03-24T04:59:56.321Z,7.10
2019-03-24T05:02:26.822Z,7.10
2019-03-24T05:04:57.302Z,7.10
2019-03-24T05:07:27.802Z,7.10
2019-03-24T05:09:58.264Z,7.00
2019-03-24T05:12:28.651Z,7.00
2019-03-24T05:14:59.044Z,7.00
2019-03-24T05:17:29.445Z,7.00
2019-03-24T05:19:59.938Z,7.00
2019-03-24T05:22:30.413Z,6.90
2019-03-24T05:25:00.790Z,6.90
2019-03-24T05:27:31.197Z,6.90
2019-03-24T05:30:01.589Z,6.90
2019-03-24T05:32:32.049Z,6.90
2019-03-24T05:35:02.479Z,6.90
2019-03-24T05:37:32.862Z,6.90
2019-03-24T05:40:03.334Z,6.80
2019-03-24T05:42:33.784Z,6.80
2019-03-24T05:45:04.311Z,6.80
2019-03-24T05:47:37.461Z,6.80
2019-03-24T05:50:07.314Z,6.80
2019-03-24T05:52:37.723Z,6.80
2019-03-24T05:55:08.372Z,6.80
2019-03-24T05:57:38.764Z,6.70
2019-03-24T06:00:10.786Z,6.70
2019-03-24T06:02:41.253Z,6.70
2019-03-24T06:05:11.837Z,6.70
2019-03-24T06:07:42.223Z,6.70
2019-03-24T06:10:12.829Z,6.70
2019-03-24T06:12:43.227Z,6.70
2019-03-24T06:15:13.779Z,6.60
2019-03-24T06:17:48.015Z,6.60
2019-03-24T06:20:16.419Z,6.60
2019-03-24T06:22:46.796Z,6.60
2019-03-24T06:25:17.236Z,6.60
2019-03-24T06:27:47.899Z,6.60
2019-03-24T06:30:18.470Z,6.60
2019-03-24T06:32:49.017Z,6.60
2019-03-24T06:35:19.567Z,6.60
2019-03-24T06:37:50.408Z,6.60
2019-03-24T06:40:21.332Z,6.60
2019-03-24T06:42:51.721Z,6.60
2019-03-24T06:45:28.533Z,6.60
2019-03-24T06:47:58.133Z,6.60
2019-03-24T06:50:26.864Z,6.60
2019-03-24T06:52:57.243Z,6.60
2019-03-24T06:55:27.811Z,6.60
2019-03-24T06:57:58.189Z,6.50
2019-03-24T07:00:28.592Z,6.60
2019-03-24T07:02:59.479Z,6.60
2019-03-24T07:05:29.896Z,6.50
2019-03-24T07:08:00.308Z,6.50
2019-03-24T07:10:30.709Z,6.50
2019-03-24T07:13:01.379Z,6.50
2019-03-24T07:15:31.868Z,6.50
2019-03-24T07:18:08.467Z,6.50
2019-03-24T07:20:34.435Z,6.50
2019-03-24T07:23:04.967Z,6.50
2019-03-24T07:25:35.369Z,6.50
2019-03-24T07:28:05.844Z,6.50
2019-03-24T07:30:36.241Z,6.50
2019-03-24T07:33:06.757Z,6.50
2019-03-24T07:35:37.152Z,6.50
2019-03-24T07:38:07.616Z,6.50
2019-03-24T07:40:38.035Z,6.50
2019-03-24T07:43:08.416Z,6.50
2019-03-24T07:45:38.891Z,6.50
2019-03-24T07:48:18.709Z,6.60
2019-03-24T07:50:41.523Z,6.50
2019-03-24T07:53:12.300Z,6.60
2019-03-24T07:55:42.706Z,6.60
2019-03-24T07:58:13.208Z,6.60
2019-03-24T08:00:43.602Z,6.60
2019-03-24T08:03:13.996Z,6.60
2019-03-24T08:05:44.392Z,6.60
2019-03-24T08:08:14.819Z,6.60
2019-03-24T08:10:45.284Z,6.70
2019-03-24T08:13:15.685Z,6.70
2019-03-24T08:15:46.160Z,6.70
2019-03-24T08:18:16.554Z,6.70
2019-03-24T08:20:47.035Z,6.80
2019-03-24T08:23:17.465Z,6.80
2019-03-24T08:25:47.860Z,6.90
2019-03-24T08:28:18.339Z,6.90
2019-03-24T08:30:48.914Z,7.00
2019-03-24T08:33:19.448Z,7.00
2019-03-24T08:35:49.866Z,7.00
2019-03-24T08:38:21.274Z,7.00
2019-03-24T08:40:55.077Z,7.10
2019-03-24T08:43:26.423Z,7.10
2019-03-24T08:45:57.548Z,7.20
2019-03-24T08:48:28.772Z,7.20
2019-03-24T08:51:00.298Z,7.30
2019-03-24T08:53:31.687Z,7.30
2019-03-24T08:56:03.067Z,7.40
2019-03-24T08:58:34.856Z,7.40
2019-03-24T09:01:06.243Z,7.50
2019-03-24T09:03:37.460Z,7.50
2019-03-24T09:06:08.775Z,7.60
2019-03-24T09:08:40.309Z,7.60
2019-03-24T09:11:11.674Z,7.70
2019-03-24T09:13:43.046Z,7.70
2019-03-24T09:16:14.539Z,7.70
2019-03-24T09:18:52.413Z,7.80
2019-03-24T09:21:19.654Z,7.80
2019-03-24T09:23:51.547Z,7.90
2019-03-24T09:26:22.986Z,8.00
2019-03-24T09:28:55.603Z,8.10
2019-03-24T09:31:26.875Z,8.20
2019-03-24T09:33:57.976Z,8.20
2019-03-24T09:36:29.689Z,8.30
2019-03-24T09:39:01.136Z,8.30
2019-03-24T09:41:32.490Z,8.30
2019-03-24T09:44:03.763Z,8.30
2019-03-24T09:46:34.972Z,8.30
2019-03-24T09:49:06.260Z,8.30
2019-03-24T09:51:38.546Z,8.40
2019-03-24T09:54:09.894Z,8.40
2019-03-24T09:56:40.336Z,8.50
2019-03-24T09:59:11.506Z,8.50
2019-03-24T10:01:42.070Z,8.50
2019-03-24T10:04:15.293Z,8.50
2019-03-24T10:06:45.900Z,8.50
2019-03-24T10:09:17.107Z,8.50
2019-03-24T10:11:49.191Z,8.50
2019-03-24T10:14:19.815Z,8.50
2019-03-24T10:16:51.245Z,8.60
2019-03-24T10:19:22.234Z,8.60
2019-03-24T10:21:53.340Z,8.60
2019-03-24T10:24:24.519Z,8.70
2019-03-24T10:26:58.557Z,8.70
2019-03-24T10:29:29.671Z,8.80
2019-03-24T10:32:00.576Z,8.90
2019-03-24T10:34:33.049Z,9.00
2019-03-24T10:37:04.196Z,9.20
2019-03-24T10:39:35.481Z,9.30
2019-03-24T10:42:06.315Z,9.40
2019-03-24T10:44:37.260Z,9.60
2019-03-24T10:47:08.350Z,9.80
2019-03-24T10:49:38.938Z,10.00
2019-03-24T10:52:10.294Z,10.10
2019-03-24T10:54:40.711Z,10.20
2019-03-24T10:57:14.683Z,10.30
2019-03-24T10:59:46.153Z,10.40
2019-03-24T11:02:17.619Z,10.50
2019-03-24T11:04:50.198Z,10.60
2019-03-24T11:07:21.826Z,10.90
2019-03-24T11:09:53.178Z,11.20
2019-03-24T11:12:24.495Z,11.50
2019-03-24T11:14:56.024Z,11.80
2019-03-24T11:17:26.470Z,12.00
2019-03-24T11:19:56.900Z,12.20
2019-03-24T11:22:27.600Z,12.50
2019-03-24T11:24:58.091Z,12.80
2019-03-24T11:27:28.581Z,12.80
2019-03-24T11:29:58.995Z,12.80
2019-03-24T11:32:29.469Z,12.60
2019-03-24T11:35:00.118Z,12.50
2019-03-24T11:37:30.686Z,12.60
2019-03-24T11:40:01.269Z,12.70
2019-03-24T11:42:31.747Z,12.70
2019-03-24T11:45:02.208Z,12.70
2019-03-24T11:47:32.692Z,12.60
2019-03-24T11:50:03.224Z,12.50
2019-03-24T11:52:33.627Z,12.50
2019-03-24T11:55:04.224Z,12.40
2019-03-24T11:57:34.680Z,12.50
2019-03-24T12:00:06.264Z,12.70
2019-03-24T12:02:36.725Z,12.90
2019-03-24T12:05:08.289Z,13.10
2019-03-24T12:07:38.777Z,13.20
2019-03-24T12:10:11.257Z,13.20
2019-03-24T12:12:41.805Z,13.10
2019-03-24T12:15:12.475Z,13.10
2019-03-24T12:17:42.859Z,13.10
2019-03-24T12:20:13.516Z,13.00
2019-03-24T12:22:44.066Z,13.00
2019-03-24T12:25:14.628Z,13.00
2019-03-24T12:27:45.114Z,12.90
2019-03-24T12:30:15.680Z,12.70
2019-03-24T12:32:47.271Z,12.50
2019-03-24T12:35:17.766Z,12.40
2019-03-24T12:37:48.297Z,12.30
2019-03-24T12:40:18.918Z,12.30
2019-03-24T12:42:49.341Z,12.20
2019-03-24T12:45:19.830Z,12.10
2019-03-24T12:47:50.220Z,12.00
2019-03-24T12:50:30.883Z,11.80
2019-03-24T12:52:52.960Z,11.70
2019-03-24T12:55:23.452Z,11.70
2019-03-24T12:57:53.883Z,11.60
2019-03-24T13:00:34.912Z,11.50
2019-03-24T13:03:05.870Z,11.40
2019-03-24T13:05:36.342Z,11.30
2019-03-24T13:08:17.183Z,11.20
2019-03-24T13:10:47.934Z,11.10
2019-03-24T13:13:18.580Z,11.10
2019-03-24T13:15:49.163Z,11.10
2019-03-24T13:18:19.729Z,11.10
2019-03-24T13:20:50.218Z,11.10
2019-03-24T13:23:20.628Z,11.10
2019-03-24T13:25:51.361Z,11.20
2019-03-24T13:28:21.825Z,11.30
2019-03-24T13:30:52.244Z,11.40
2019-03-24T13:33:22.796Z,11.40
2019-03-24T13:36:05.351Z,11.40
2019-03-24T13:38:35.818Z,11.40
2019-03-24T13:41:06.391Z,11.50
2019-03-24T13:43:36.882Z,11.60
2019-03-24T13:46:07.461Z,11.60
2019-03-24T13:48:37.930Z,11.60
2019-03-24T13:51:08.506Z,11.60
2019-03-24T13:53:38.963Z,11.50
2019-03-24T13:56:09.529Z,11.40
2019-03-24T13:58:39.921Z,11.30
2019-03-24T14:01:10.887Z,11.40
2019-03-24T14:03:41.362Z,11.50
2019-03-24T14:06:11.942Z,11.60
2019-03-24T14:08:42.340Z,11.60
2019-03-24T14:11:12.813Z,11.70
2019-03-24T14:13:43.288Z,11.80
2019-03-24T14:16:13.853Z,11.90
2019-03-24T14:18:44.245Z,11.90
2019-03-24T14:21:14.749Z,11.90
2019-03-24T14:23:45.216Z,12.00
2019-03-24T14:26:15.692Z,12.10
2019-03-24T14:28:46.151Z,12.20
2019-03-24T14:31:16.599Z,12.20
2019-03-24T14:33:47.056Z,12.10
2019-03-24T14:36:17.467Z,12.00
2019-03-24T14:38:47.931Z,12.00
2019-03-24T14:41:18.426Z,12.00
2019-03-24T14:43:49.052Z,12.00
2019-03-24T14:46:19.530Z,12.00
2019-03-24T14:48:50.069Z,12.00
2019-03-24T14:51:20.489Z,12.00
2019-03-24T14:53:50.970Z,12.00
2019-03-24T14:56:21.375Z,12.00
2019-03-24T14:58:51.863Z,11.90
2019-03-24T15:01:22.344Z,11.80
2019-03-24T15:03:52.818Z,11.70
2019-03-24T15:06:23.306Z,11.60
2019-03-24T15:08:53.783Z,11.50
2019-03-24T15:11:24.359Z,11.40
2019-03-24T15:13:54.762Z,11.30
2019-03-24T15:16:25.175Z,11.30
2019-03-24T15:18:55.583Z,11.20
2019-03-24T15:21:26.150Z,11.00
2019-03-24T15:23:56.551Z,11.00
2019-03-24T15:26:27.029Z,10.90
2019-03-24T15:28:57.505Z,10.80
2019-03-24T15:31:27.924Z,10.70
2019-03-24T15:33:58.384Z,10.60
2019-03-24T15:36:28.794Z,10.50
2019-03-24T15:38:59.263Z,10.50
2019-03-24T15:41:29.664Z,10.40
2019-03-24T15:44:00.327Z,10.40
2019-03-24T15:46:30.828Z,10.40
2019-03-24T15:49:01.300Z,10.40
2019-03-24T15:51:31.723Z,10.30
2019-03-24T15:54:02.115Z,10.30
2019-03-24T15:56:32.755Z,10.30
2019-03-24T15:59:03.144Z,10.30
2019-03-24T16:01:33.553Z,10.20
2019-03-24T16:04:04.094Z,10.20
2019-03-24T16:06:34.500Z,10.20
2019-03-24T16:09:06.952Z,10.10
2019-03-24T16:11:37.547Z,10.10
2019-03-24T16:14:08.000Z,10.10
2019-03-24T16:16:38.422Z,10.10
2019-03-24T16:19:08.898Z,10.00
2019-03-24T16:21:39.337Z,10.00
2019-03-24T16:24:09.742Z,9.90
2019-03-24T16:26:40.196Z,9.90
2019-03-24T16:29:10.672Z,9.80
2019-03-24T16:31:41.127Z,9.80
2019-03-24T16:34:11.803Z,9.80
2019-03-24T16:36:45.631Z,9.80
2019-03-24T16:39:16.134Z,9.80
2019-03-24T16:41:46.543Z,9.80
2019-03-24T16:44:17.008Z,9.70
2019-03-24T16:46:47.450Z,9.70
2019-03-24T16:49:17.905Z,9.70
2019-03-24T16:51:48.315Z,9.70
2019-03-24T16:54:18.713Z,9.60
2019-03-24T16:56:49.086Z,9.60
2019-03-24T16:59:19.484Z,9.60
2019-03-24T17:01:49.869Z,9.60
2019-03-24T17:04:20.439Z,9.50
2019-03-24T17:06:50.829Z,9.50
2019-03-24T17:09:21.324Z,9.50
2019-03-24T17:11:51.781Z,9.50
2019-03-24T17:14:22.265Z,9.40
2019-03-24T17:16:52.808Z,9.40
2019-03-24T17:19:23.290Z,9.40
2019-03-24T17:21:53.702Z,9.30
2019-03-24T17:24:24.103Z,9.30
2019-03-24T17:26:54.580Z,9.20
2019-03-24T17:29:24.997Z,9.20
2019-03-24T17:31:55.445Z,9.10
2019-03-24T17:34:26.020Z,9.10
2019-03-24T17:36:56.495Z,9.10
2019-03-24T17:39:26.904Z,9.00
2019-03-24T17:41:57.447Z,9.00
2019-03-24T17:44:27.939Z,8.90
2019-03-24T17:46:58.315Z,8.90
2019-03-24T17:49:28.872Z,8.90
2019-03-24T17:52:00.877Z,8.80
2019-03-24T17:54:31.622Z,8.80
2019-03-24T17:57:02.082Z,8.70
2019-03-24T17:59:32.633Z,8.70
2019-03-24T18:02:10.051Z,8.60
2019-03-24T18:04:35.185Z,8.50
2019-03-24T18:07:05.814Z,8.40
2019-03-24T18:09:36.217Z,8.30
2019-03-24T18:12:06.672Z,8.30
2019-03-24T18:14:37.298Z,8.20
2019-03-24T18:17:07.832Z,8.10
2019-03-24T18:19:38.252Z,8.00
2019-03-24T18:22:11.925Z,7.90
2019-03-24T18:24:40.936Z,7.90
2019-03-24T18:27:11.391Z,7.80
2019-03-24T18:29:41.800Z,7.70
2019-03-24T18:32:12.203Z,7.60
2019-03-24T18:34:42.722Z,7.60
2019-03-24T18:37:13.195Z,7.50
2019-03-24T18:39:43.608Z,7.40
2019-03-24T18:42:14.076Z,7.30
2019-03-24T18:44:44.645Z,7.30
2019-03-24T18:47:15.132Z,7.20
2019-03-24T18:49:46.059Z,7.10
2019-03-24T18:52:22.694Z,7.10
2019-03-24T18:54:48.657Z,7.00
2019-03-24T18:57:19.210Z,6.90
2019-03-24T18:59:49.903Z,6.80
2019-03-24T19:02:20.347Z,6.80
2019-03-24T19:04:50.787Z,6.70
2019-03-24T19:07:21.244Z,6.60
2019-03-24T19:09:51.728Z,6.60
2019-03-24T19:12:22.117Z,6.60
2019-03-24T19:14:52.608Z,6.50
2019-03-24T19:17:23.124Z,6.40
2019-03-24T19:19:53.835Z,6.40
2019-03-24T19:22:33.306Z,6.40
2019-03-24T19:24:57.229Z,6.30
2019-03-24T19:27:27.824Z,6.30
2019-03-24T19:29:58.473Z,6.20
2019-03-24T19:32:31.294Z,6.20
2019-03-24T19:35:02.698Z,6.10
2019-03-24T19:37:33.375Z,6.10
2019-03-24T19:40:04.261Z,6.00
2019-03-24T19:42:34.777Z,6.00
2019-03-24T19:45:06.015Z,5.90
2019-03-24T19:47:37.463Z,5.90
2019-03-24T19:50:08.206Z,5.80
2019-03-24T19:52:44.950Z,5.80
2019-03-24T19:55:12.983Z,5.80
2019-03-24T19:57:43.378Z,5.80
2019-03-24T20:00:14.272Z,5.70
2019-03-24T20:02:44.797Z,5.70
2019-03-24T20:05:15.497Z,5.70
2019-03-24T20:07:48.190Z,5.70
2019-03-24T20:10:18.170Z,5.70
2019-03-24T20:12:48.615Z,5.70
2019-03-24T20:15:19.139Z,5.70
2019-03-24T20:17:49.940Z,5.70
2019-03-24T20:20:20.635Z,5.70
2019-03-24T20:22:56.385Z,5.70
2019-03-24T20:25:23.283Z,5.70
2019-03-24T20:27:53.771Z,5.80
2019-03-24T20:30:24.236Z,5.80
2019-03-24T20:32:54.653Z,5.80
2019-03-24T20:35:25.393Z,5.70
2019-03-24T20:37:55.796Z,5.70
2019-03-24T20:40:26.180Z,5.70
2019-03-24T20:42:56.733Z,5.60
2019-03-24T20:45:27.282Z,5.60
2019-03-24T20:47:57.838Z,5.50
2019-03-24T20:50:28.373Z,5.50
2019-03-24T20:53:04.101Z,5.40
2019-03-24T20:55:31.260Z,5.40
2019-03-24T20:58:01.686Z,5.40
2019-03-24T21:00:33.919Z,5.30
2019-03-24T21:03:07.408Z,5.30
2019-03-24T21:05:38.103Z,5.30
2019-03-24T21:08:08.586Z,5.40
2019-03-24T21:10:39.120Z,5.40
2019-03-24T21:13:09.684Z,5.40
2019-03-24T21:15:40.140Z,5.40
2019-03-24T21:18:10.869Z,5.40
2019-03-24T21:20:41.478Z,5.40
2019-03-24T21:23:11.872Z,5.30
2019-03-24T21:25:42.504Z,5.30
2019-03-24T21:28:12.905Z,5.30
2019-03-24T21:30:43.436Z,5.20
2019-03-24T21:33:13.843Z,5.20
2019-03-24T21:35:44.303Z,5.10
2019-03-24T21:38:14.767Z,5.10
2019-03-24T21:40:45.316Z,5.00
2019-03-24T21:43:15.806Z,5.00
2019-03-24T21:45:46.192Z,4.90
2019-03-24T21:48:16.634Z,4.90
2019-03-24T21:50:47.089Z,4.80
2019-03-24T21:53:17.576Z,4.80
2019-03-24T21:55:47.970Z,4.80
2019-03-24T21:58:18.443Z,4.80
2019-03-24T22:00:48.910Z,4.70
2019-03-24T22:03:19.464Z,4.70
2019-03-24T22:05:49.920Z,4.70
2019-03-24T22:08:20.390Z,4.60
2019-03-24T22:10:50.970Z,4.60
2019-03-24T22:13:21.441Z,4.60
2019-03-24T22:15:51.831Z,4.50
2019-03-24T22:18:22.232Z,4.50
2019-03-24T22:20:52.698Z,4.50
2019-03-24T22:23:23.110Z,4.50
2019-03-24T22:25:53.567Z,4.40
2019-03-24T22:28:23.956Z,4.40
2019-03-24T22:30:54.362Z,4.40
2019-03-24T22:33:24.769Z,4.40
2019-03-24T22:35:55.165Z,4.30
2019-03-24T22:38:25.558Z,4.30
2019-03-24T22:40:56.006Z,4.30
2019-03-24T22:43:26.473Z,4.30
2019-03-24T22:45:57.206Z,4.30
2019-03-24T22:48:27.622Z,4.30
2019-03-24T22:50:58.008Z,4.30
2019-03-24T22:53:28.479Z,4.30
2019-03-24T22:55:58.886Z,4.30
2019-03-24T22:58:29.300Z,4.30
2019-03-24T23:00:59.861Z,4.30
2019-03-24T23:03:30.434Z,4.30
2019-03-24T23:06:00.859Z,4.30
2019-03-24T23:08:31.254Z,4.30
2019-03-24T23:11:01.636Z,4.30
2019-03-24T23:13:32.041Z,4.30
2019-03-24T23:16:02.510Z,4.20
2019-03-24T23:18:32.935Z,4.20
2019-03-24T23:21:03.398Z,4.20
2019-03-24T23:23:33.867Z,4.20
2019-03-24T23:26:04.320Z,4.20
2019-03-24T23:28:34.777Z,4.20
2019-03-24T23:31:05.329Z,4.10
2019-03-24T23:33:35.721Z,4.10
2019-03-24T23:36:06.213Z,4.10
2019-03-24T23:38:36.583Z,4.10
2019-03-24T23:41:06.991Z,4.10
2019-03-24T23:43:37.493Z,4.10
2019-03-24T23:46:08.070Z,4.10
2019-03-24T23:48:38.488Z,4.10
2019-03-24T23:51:09.032Z,4.10
2019-03-24T23:53:39.502Z,4.20
2019-03-24T23:56:10.048Z,4.20
2019-03-24T23:58:41.404Z,4.20
